sensor_id;sensor_type;location;lat;lon;timestamp;temperature;humidity
9824;DHT22;4951;50.778;7.196;2022-08-19T00:01:16;18.30;99.90
9824;DHT22;4951;50.778;7.196;2022-08-19T00:03:43;18.30;99.90
9824;DHT22;4951;50.778;7.196;2022-08-19T00:06:10;18.30;99.90
9824;DHT22;4951;50.778;7.196;2022-08-19T00:08:40;18.30;99.90
9824;DHT22;4951;50.778;7.196;2022-08-19T00:11:10;18.30;99.90
9824;DHT22;4951;50.778;7.196;2022-08-19T00:13:41;18.20;99.90
9824;DHT22;4951;50.778;7.196;2022-08-19T00:16:08;18.20;99.90
9824;DHT22;4951;50.778;7.196;2022-08-19T00:18:35;18.20;99.90
9824;DHT22;4951;50.778;7.196;2022-08-19T00:21:03;18.20;99.90
9824;DHT22;4951;50.778;7.196;2022-08-19T00:23:34;18.20;99.90
9824;DHT22;4951;50.778;7.196;2022-08-19T00:26:05;18.10;99.90
9824;DHT22;4951;50.778;7.196;2022-08-19T00:28:34;18.10;99.90
9824;DHT22;4951;50.778;7.196;2022-08-19T00:31:02;18.10;99.90
9824;DHT22;4951;50.778;7.196;2022-08-19T00:33:30;18.10;99.90
9824;DHT22;4951;50.778;7.196;2022-08-19T00:35:58;18.10;99.90
9824;DHT22;4951;50.778;7.196;2022-08-19T00:38:40;18.10;99.90
9824;DHT22;4951;50.778;7.196;2022-08-19T00:41:13;18.00;99.90
9824;DHT22;4951;50.778;7.196;2022-08-19T00:43:42;17.90;1.00
9824;DHT22;4951;50.778;7.196;2022-08-19T00:46:09;17.90;1.00
9824;DHT22;4951;50.778;7.196;2022-08-19T00:48:39;17.90;1.00
9824;DHT22;4951;50.778;7.196;2022-08-19T00:51:07;17.90;1.00
9824;DHT22;4951;50.778;7.196;2022-08-19T00:53:36;17.90;1.00
9824;DHT22;4951;50.778;7.196;2022-08-19T00:56:03;17.90;1.00
9824;DHT22;4951;50.778;7.196;2022-08-19T00:58:34;17.80;1.00
9824;DHT22;4951;50.778;7.196;2022-08-19T01:01:04;17.80;1.00
9824;DHT22;4951;50.778;7.196;2022-08-19T01:03:31;17.80;1.00
9824;DHT22;4951;50.778;7.196;2022-08-19T01:05:58;17.70;1.00
9824;DHT22;4951;50.778;7.196;2022-08-19T01:08:27;17.70;1.00
9824;DHT22;4951;50.778;7.196;2022-08-19T01:10:57;17.70;1.00
9824;DHT22;4951;50.778;7.196;2022-08-19T01:13:27;17.60;1.00
9824;DHT22;4951;50.778;7.196;2022-08-19T01:16:03;17.60;1.00
9824;DHT22;4951;50.778;7.196;2022-08-19T01:18:31;17.60;1.00
9824;DHT22;4951;50.778;7.196;2022-08-19T01:21:05;17.60;1.00
9824;DHT22;4951;50.778;7.196;2022-08-19T01:23:36;17.60;1.00
9824;DHT22;4951;50.778;7.196;2022-08-19T01:26:27;17.50;1.00
9824;DHT22;4951;50.778;7.196;2022-08-19T01:28:56;17.50;1.00
9824;DHT22;4951;50.778;7.196;2022-08-19T01:31:26;17.50;1.00
9824;DHT22;4951;50.778;7.196;2022-08-19T01:33:57;17.50;1.00
9824;DHT22;4951;50.778;7.196;2022-08-19T01:36:27;17.50;1.00
9824;DHT22;4951;50.778;7.196;2022-08-19T01:38:56;17.50;1.00
9824;DHT22;4951;50.778;7.196;2022-08-19T01:41:24;17.50;1.00
9824;DHT22;4951;50.778;7.196;2022-08-19T01:43:53;17.50;1.00
9824;DHT22;4951;50.778;7.196;2022-08-19T01:46:22;17.50;1.00
9824;DHT22;4951;50.778;7.196;2022-08-19T01:48:49;17.50;1.00
9824;DHT22;4951;50.778;7.196;2022-08-19T01:51:16;17.40;1.00
9824;DHT22;4951;50.778;7.196;2022-08-19T01:53:47;17.50;1.00
9824;DHT22;4951;50.778;7.196;2022-08-19T01:56:18;17.40;1.00
9824;DHT22;4951;50.778;7.196;2022-08-19T01:58:49;17.40;1.00
9824;DHT22;4951;50.778;7.196;2022-08-19T02:01:19;17.40;1.00
9824;DHT22;4951;50.778;7.196;2022-08-19T02:03:47;17.40;1.00
9824;DHT22;4951;50.778;7.196;2022-08-19T02:06:14;17.40;1.00
9824;DHT22;4951;50.778;7.196;2022-08-19T02:08:42;17.40;1.00
9824;DHT22;4951;50.778;7.196;2022-08-19T02:11:21;17.40;1.00
9824;DHT22;4951;50.778;7.196;2022-08-19T02:13:49;17.40;1.00
9824;DHT22;4951;50.778;7.196;2022-08-19T02:16:19;17.40;1.00
9824;DHT22;4951;50.778;7.196;2022-08-19T02:18:47;17.40;1.00
9824;DHT22;4951;50.778;7.196;2022-08-19T02:21:16;17.30;1.00
9824;DHT22;4951;50.778;7.196;2022-08-19T02:23:44;17.40;1.00
9824;DHT22;4951;50.778;7.196;2022-08-19T02:26:12;17.40;1.00
9824;DHT22;4951;50.778;7.196;2022-08-19T02:28:41;17.40;1.00
9824;DHT22;4951;50.778;7.196;2022-08-19T02:31:09;17.40;1.00
9824;DHT22;4951;50.778;7.196;2022-08-19T02:33:38;17.40;1.00
9824;DHT22;4951;50.778;7.196;2022-08-19T02:36:06;17.30;1.00
9824;DHT22;4951;50.778;7.196;2022-08-19T02:38:34;17.30;1.00
9824;DHT22;4951;50.778;7.196;2022-08-19T02:41:03;17.30;1.00
9824;DHT22;4951;50.778;7.196;2022-08-19T02:43:32;17.30;1.00
9824;DHT22;4951;50.778;7.196;2022-08-19T02:46:12;17.30;1.00
9824;DHT22;4951;50.778;7.196;2022-08-19T02:48:39;17.30;1.00
9824;DHT22;4951;50.778;7.196;2022-08-19T02:51:06;17.20;1.00
9824;DHT22;4951;50.778;7.196;2022-08-19T02:53:39;17.30;1.00
9824;DHT22;4951;50.778;7.196;2022-08-19T02:56:07;17.30;1.00
9824;DHT22;4951;50.778;7.196;2022-08-19T02:58:35;17.20;1.00
9824;DHT22;4951;50.778;7.196;2022-08-19T03:01:03;17.30;1.00
9824;DHT22;4951;50.778;7.196;2022-08-19T03:03:31;17.30;1.00
9824;DHT22;4951;50.778;7.196;2022-08-19T03:06:08;17.20;1.00
9824;DHT22;4951;50.778;7.196;2022-08-19T03:08:37;17.30;1.00
9824;DHT22;4951;50.778;7.196;2022-08-19T03:11:04;17.20;1.00
9824;DHT22;4951;50.778;7.196;2022-08-19T03:13:32;17.20;1.00
9824;DHT22;4951;50.778;7.196;2022-08-19T03:15:59;17.20;1.00
9824;DHT22;4951;50.778;7.196;2022-08-19T03:18:28;17.10;1.00
9824;DHT22;4951;50.778;7.196;2022-08-19T03:20:55;17.10;1.00
9824;DHT22;4951;50.778;7.196;2022-08-19T03:23:24;17.10;1.00
9824;DHT22;4951;50.778;7.196;2022-08-19T03:25:52;17.10;1.00
9824;DHT22;4951;50.778;7.196;2022-08-19T03:28:20;17.10;1.00
9824;DHT22;4951;50.778;7.196;2022-08-19T03:30:56;17.10;1.00
9824;DHT22;4951;50.778;7.196;2022-08-19T03:33:29;17.00;1.00
9824;DHT22;4951;50.778;7.196;2022-08-19T03:36:04;17.00;1.00
9824;DHT22;4951;50.778;7.196;2022-08-19T03:38:34;17.00;1.00
9824;DHT22;4951;50.778;7.196;2022-08-19T03:41:03;17.00;1.00
9824;DHT22;4951;50.778;7.196;2022-08-19T03:43:35;17.00;1.00
9824;DHT22;4951;50.778;7.196;2022-08-19T03:46:04;17.00;1.00
9824;DHT22;4951;50.778;7.196;2022-08-19T03:48:35;17.00;1.00
9824;DHT22;4951;50.778;7.196;2022-08-19T03:51:05;16.90;1.00
9824;DHT22;4951;50.778;7.196;2022-08-19T03:53:34;16.90;1.00
9824;DHT22;4951;50.778;7.196;2022-08-19T03:56:03;16.90;1.00
9824;DHT22;4951;50.778;7.196;2022-08-19T03:58:34;16.90;1.00
9824;DHT22;4951;50.778;7.196;2022-08-19T04:01:07;16.90;1.00
9824;DHT22;4951;50.778;7.196;2022-08-19T04:03:36;16.90;1.00
9824;DHT22;4951;50.778;7.196;2022-08-19T04:06:10;16.90;1.00
9824;DHT22;4951;50.778;7.196;2022-08-19T04:08:39;16.90;1.00
9824;DHT22;4951;50.778;7.196;2022-08-19T04:11:08;16.80;1.00
9824;DHT22;4951;50.778;7.196;2022-08-19T04:13:35;16.80;1.00
9824;DHT22;4951;50.778;7.196;2022-08-19T04:16:02;16.80;1.00
9824;DHT22;4951;50.778;7.196;2022-08-19T04:18:30;16.80;1.00
9824;DHT22;4951;50.778;7.196;2022-08-19T04:21:00;16.70;1.00
9824;DHT22;4951;50.778;7.196;2022-08-19T04:23:28;16.70;1.00
9824;DHT22;4951;50.778;7.196;2022-08-19T04:25:56;16.70;1.00
9824;DHT22;4951;50.778;7.196;2022-08-19T04:28:24;16.70;1.00
9824;DHT22;4951;50.778;7.196;2022-08-19T04:31:11;16.60;1.00
9824;DHT22;4951;50.778;7.196;2022-08-19T04:33:49;16.60;1.00
9824;DHT22;4951;50.778;7.196;2022-08-19T04:36:21;16.60;1.00
9824;DHT22;4951;50.778;7.196;2022-08-19T04:38:53;16.60;1.00
9824;DHT22;4951;50.778;7.196;2022-08-19T04:41:21;16.60;1.00
9824;DHT22;4951;50.778;7.196;2022-08-19T04:44:07;16.60;1.00
9824;DHT22;4951;50.778;7.196;2022-08-19T04:46:34;16.60;1.00
9824;DHT22;4951;50.778;7.196;2022-08-19T04:49:04;16.60;1.00
9824;DHT22;4951;50.778;7.196;2022-08-19T04:51:33;16.60;1.00
9824;DHT22;4951;50.778;7.196;2022-08-19T04:54:02;16.60;1.00
9824;DHT22;4951;50.778;7.196;2022-08-19T04:56:31;16.60;1.00
9824;DHT22;4951;50.778;7.196;2022-08-19T04:58:59;16.60;1.00
9824;DHT22;4951;50.778;7.196;2022-08-19T05:01:32;16.60;1.00
9824;DHT22;4951;50.778;7.196;2022-08-19T05:04:00;16.60;1.00
9824;DHT22;4951;50.778;7.196;2022-08-19T05:06:30;16.60;1.00
9824;DHT22;4951;50.778;7.196;2022-08-19T05:09:12;16.60;1.00
9824;DHT22;4951;50.778;7.196;2022-08-19T05:11:42;16.60;1.00
9824;DHT22;4951;50.778;7.196;2022-08-19T05:14:12;16.70;1.00
9824;DHT22;4951;50.778;7.196;2022-08-19T05:16:40;16.70;1.00
9824;DHT22;4951;50.778;7.196;2022-08-19T05:19:07;16.70;1.00
9824;DHT22;4951;50.778;7.196;2022-08-19T05:21:54;16.70;1.00
9824;DHT22;4951;50.778;7.196;2022-08-19T05:24:46;16.80;1.00
9824;DHT22;4951;50.778;7.196;2022-08-19T05:27:13;16.80;1.00
9824;DHT22;4951;50.778;7.196;2022-08-19T05:29:52;16.80;1.00
9824;DHT22;4951;50.778;7.196;2022-08-19T05:32:21;16.80;1.00
9824;DHT22;4951;50.778;7.196;2022-08-19T05:34:50;16.90;1.00
9824;DHT22;4951;50.778;7.196;2022-08-19T05:37:18;16.90;1.00
9824;DHT22;4951;50.778;7.196;2022-08-19T05:40:03;17.00;1.00
9824;DHT22;4951;50.778;7.196;2022-08-19T05:42:43;17.00;1.00
9824;DHT22;4951;50.778;7.196;2022-08-19T05:45:24;17.00;1.00
9824;DHT22;4951;50.778;7.196;2022-08-19T05:47:51;17.10;1.00
9824;DHT22;4951;50.778;7.196;2022-08-19T05:50:27;17.10;1.00
9824;DHT22;4951;50.778;7.196;2022-08-19T05:52:54;17.20;1.00
9824;DHT22;4951;50.778;7.196;2022-08-19T05:55:34;17.20;1.00
9824;DHT22;4951;50.778;7.196;2022-08-19T05:58:10;17.30;1.00
9824;DHT22;4951;50.778;7.196;2022-08-19T06:00:43;17.30;1.00
9824;DHT22;4951;50.778;7.196;2022-08-19T06:03:10;17.40;1.00
9824;DHT22;4951;50.778;7.196;2022-08-19T06:05:39;17.40;1.00
9824;DHT22;4951;50.778;7.196;2022-08-19T06:08:08;17.50;1.00
9824;DHT22;4951;50.778;7.196;2022-08-19T06:10:36;17.50;1.00
9824;DHT22;4951;50.778;7.196;2022-08-19T06:13:03;17.60;1.00
9824;DHT22;4951;50.778;7.196;2022-08-19T06:15:31;17.70;1.00
9824;DHT22;4951;50.778;7.196;2022-08-19T06:18:25;17.80;1.00
9824;DHT22;4951;50.778;7.196;2022-08-19T06:21:11;17.90;1.00
9824;DHT22;4951;50.778;7.196;2022-08-19T06:23:53;17.90;1.00
9824;DHT22;4951;50.778;7.196;2022-08-19T06:26:31;18.00;1.00
9824;DHT22;4951;50.778;7.196;2022-08-19T06:29:05;18.10;1.00
9824;DHT22;4951;50.778;7.196;2022-08-19T06:32:37;18.20;1.00
9824;DHT22;4951;50.778;7.196;2022-08-19T06:35:15;18.30;1.00
9824;DHT22;4951;50.778;7.196;2022-08-19T06:37:42;18.50;1.00
9824;DHT22;4951;50.778;7.196;2022-08-19T06:40:10;18.60;1.00
9824;DHT22;4951;50.778;7.196;2022-08-19T06:42:41;18.70;1.00
9824;DHT22;4951;50.778;7.196;2022-08-19T06:45:12;18.80;1.00
9824;DHT22;4951;50.778;7.196;2022-08-19T06:47:40;18.90;1.00
9824;DHT22;4951;50.778;7.196;2022-08-19T06:50:09;19.00;1.00
9824;DHT22;4951;50.778;7.196;2022-08-19T06:52:48;19.20;1.00
9824;DHT22;4951;50.778;7.196;2022-08-19T06:55:27;19.40;1.00
9824;DHT22;4951;50.778;7.196;2022-08-19T06:57:57;19.50;1.00
9824;DHT22;4951;50.778;7.196;2022-08-19T07:00:24;19.60;1.00
9824;DHT22;4951;50.778;7.196;2022-08-19T07:02:52;19.70;1.00
9824;DHT22;4951;50.778;7.196;2022-08-19T07:05:20;19.80;1.00
9824;DHT22;4951;50.778;7.196;2022-08-19T07:07:52;19.90;1.00
9824;DHT22;4951;50.778;7.196;2022-08-19T07:10:25;20.00;1.00
9824;DHT22;4951;50.778;7.196;2022-08-19T07:13:25;20.10;1.00
9824;DHT22;4951;50.778;7.196;2022-08-19T07:15:55;20.20;1.00
9824;DHT22;4951;50.778;7.196;2022-08-19T07:18:52;20.30;1.00
9824;DHT22;4951;50.778;7.196;2022-08-19T07:21:25;20.30;1.00
9824;DHT22;4951;50.778;7.196;2022-08-19T07:24:06;20.40;1.00
9824;DHT22;4951;50.778;7.196;2022-08-19T07:26:41;20.50;1.00
9824;DHT22;4951;50.778;7.196;2022-08-19T07:29:40;20.60;1.00
9824;DHT22;4951;50.778;7.196;2022-08-19T07:32:11;20.70;1.00
9824;DHT22;4951;50.778;7.196;2022-08-19T07:34:40;20.60;1.00
9824;DHT22;4951;50.778;7.196;2022-08-19T07:37:23;20.70;1.00
9824;DHT22;4951;50.778;7.196;2022-08-19T07:39:53;20.60;1.00
9824;DHT22;4951;50.778;7.196;2022-08-19T07:42:24;20.80;1.00
9824;DHT22;4951;50.778;7.196;2022-08-19T07:44:58;21.00;1.00
9824;DHT22;4951;50.778;7.196;2022-08-19T07:47:28;21.30;1.00
9824;DHT22;4951;50.778;7.196;2022-08-19T07:49:57;21.50;1.00
9824;DHT22;4951;50.778;7.196;2022-08-19T07:52:25;21.70;99.90
9824;DHT22;4951;50.778;7.196;2022-08-19T07:54:52;21.80;99.90
9824;DHT22;4951;50.778;7.196;2022-08-19T07:57:26;21.90;99.90
9824;DHT22;4951;50.778;7.196;2022-08-19T08:00:07;22.00;99.90
9824;DHT22;4951;50.778;7.196;2022-08-19T08:02:39;22.10;99.90
9824;DHT22;4951;50.778;7.196;2022-08-19T08:05:10;22.20;99.90
9824;DHT22;4951;50.778;7.196;2022-08-19T08:07:55;22.20;99.90
9824;DHT22;4951;50.778;7.196;2022-08-19T08:10:41;22.20;99.90
9824;DHT22;4951;50.778;7.196;2022-08-19T08:13:09;22.10;99.90
9824;DHT22;4951;50.778;7.196;2022-08-19T08:15:54;22.10;99.90
9824;DHT22;4951;50.778;7.196;2022-08-19T08:18:34;22.10;99.90
9824;DHT22;4951;50.778;7.196;2022-08-19T08:21:16;22.10;99.90
9824;DHT22;4951;50.778;7.196;2022-08-19T08:23:43;22.20;99.90
9824;DHT22;4951;50.778;7.196;2022-08-19T08:26:11;22.20;99.90
9824;DHT22;4951;50.778;7.196;2022-08-19T08:28:40;22.30;99.90
9824;DHT22;4951;50.778;7.196;2022-08-19T08:31:11;22.50;99.90
9824;DHT22;4951;50.778;7.196;2022-08-19T08:33:39;22.70;99.90
9824;DHT22;4951;50.778;7.196;2022-08-19T08:36:24;22.90;31.80
9824;DHT22;4951;50.778;7.196;2022-08-19T08:39:19;23.20;1.00
9824;DHT22;4951;50.778;7.196;2022-08-19T08:41:56;23.40;1.00
9824;DHT22;4951;50.778;7.196;2022-08-19T08:44:42;23.60;1.00
9824;DHT22;4951;50.778;7.196;2022-08-19T08:47:27;23.80;1.00
9824;DHT22;4951;50.778;7.196;2022-08-19T08:50:08;23.90;99.90
9824;DHT22;4951;50.778;7.196;2022-08-19T08:53:10;23.90;1.00
9824;DHT22;4951;50.778;7.196;2022-08-19T08:55:42;23.90;1.00
9824;DHT22;4951;50.778;7.196;2022-08-19T08:58:26;23.90;1.00
9824;DHT22;4951;50.778;7.196;2022-08-19T09:01:05;24.00;99.90
9824;DHT22;4951;50.778;7.196;2022-08-19T09:03:46;24.10;1.00
9824;DHT22;4951;50.778;7.196;2022-08-19T09:06:27;24.10;99.90
9824;DHT22;4951;50.778;7.196;2022-08-19T09:09:12;24.20;1.00
9824;DHT22;4951;50.778;7.196;2022-08-19T09:11:59;24.20;1.00
9824;DHT22;4951;50.778;7.196;2022-08-19T09:14:41;24.20;1.00
9824;DHT22;4951;50.778;7.196;2022-08-19T09:17:22;24.20;1.00
9824;DHT22;4951;50.778;7.196;2022-08-19T09:20:03;24.20;99.90
9824;DHT22;4951;50.778;7.196;2022-08-19T09:22:41;24.20;99.90
9824;DHT22;4951;50.778;7.196;2022-08-19T09:25:28;24.30;1.00
9824;DHT22;4951;50.778;7.196;2022-08-19T09:28:01;24.30;1.00
9824;DHT22;4951;50.778;7.196;2022-08-19T09:30:33;24.40;99.90
9824;DHT22;4951;50.778;7.196;2022-08-19T09:33:08;24.30;1.00
9824;DHT22;4951;50.778;7.196;2022-08-19T09:35:49;24.40;1.00
9824;DHT22;4951;50.778;7.196;2022-08-19T09:38:17;24.40;1.00
9824;DHT22;4951;50.778;7.196;2022-08-19T09:40:50;24.50;1.00
9824;DHT22;4951;50.778;7.196;2022-08-19T09:43:17;24.50;1.00
9824;DHT22;4951;50.778;7.196;2022-08-19T09:45:45;24.60;1.00
9824;DHT22;4951;50.778;7.196;2022-08-19T09:48:13;24.60;99.90
9824;DHT22;4951;50.778;7.196;2022-08-19T09:50:41;24.70;18.90
9824;DHT22;4951;50.778;7.196;2022-08-19T09:53:10;24.70;1.00
9824;DHT22;4951;50.778;7.196;2022-08-19T09:55:41;24.80;1.00
9824;DHT22;4951;50.778;7.196;2022-08-19T09:58:09;24.90;1.00
9824;DHT22;4951;50.778;7.196;2022-08-19T10:00:37;24.90;1.00
9824;DHT22;4951;50.778;7.196;2022-08-19T10:03:05;24.90;99.90
9824;DHT22;4951;50.778;7.196;2022-08-19T10:05:33;24.90;99.90
9824;DHT22;4951;50.778;7.196;2022-08-19T10:08:18;24.90;99.90
9824;DHT22;4951;50.778;7.196;2022-08-19T10:10:49;24.90;99.90
9824;DHT22;4951;50.778;7.196;2022-08-19T10:13:22;24.90;99.90
9824;DHT22;4951;50.778;7.196;2022-08-19T10:15:52;24.80;1.00
9824;DHT22;4951;50.778;7.196;2022-08-19T10:18:21;24.70;1.00
9824;DHT22;4951;50.778;7.196;2022-08-19T10:20:50;24.60;99.90
9824;DHT22;4951;50.778;7.196;2022-08-19T10:23:21;24.50;99.90
9824;DHT22;4951;50.778;7.196;2022-08-19T10:25:49;24.50;99.90
9824;DHT22;4951;50.778;7.196;2022-08-19T10:28:18;24.60;99.90
9824;DHT22;4951;50.778;7.196;2022-08-19T10:30:48;24.70;99.90
9824;DHT22;4951;50.778;7.196;2022-08-19T10:33:16;24.80;1.00
9824;DHT22;4951;50.778;7.196;2022-08-19T10:35:44;24.80;1.00
9824;DHT22;4951;50.778;7.196;2022-08-19T10:38:12;24.90;1.00
9824;DHT22;4951;50.778;7.196;2022-08-19T10:40:43;25.10;1.00
9824;DHT22;4951;50.778;7.196;2022-08-19T10:43:20;25.20;1.00
9824;DHT22;4951;50.778;7.196;2022-08-19T10:46:02;25.40;99.90
9824;DHT22;4951;50.778;7.196;2022-08-19T10:48:37;25.60;1.00
9824;DHT22;4951;50.778;7.196;2022-08-19T10:51:07;25.80;1.00
9824;DHT22;4951;50.778;7.196;2022-08-19T10:53:52;26.10;99.90
9824;DHT22;4951;50.778;7.196;2022-08-19T10:56:21;26.30;1.00
9824;DHT22;4951;50.778;7.196;2022-08-19T10:59:07;26.40;1.00
9824;DHT22;4951;50.778;7.196;2022-08-19T11:01:35;26.50;99.90
9824;DHT22;4951;50.778;7.196;2022-08-19T11:04:04;26.60;99.90
9824;DHT22;4951;50.778;7.196;2022-08-19T11:06:48;26.60;99.90
9824;DHT22;4951;50.778;7.196;2022-08-19T11:09:19;26.40;99.90
9824;DHT22;4951;50.778;7.196;2022-08-19T11:11:48;26.20;99.90
9824;DHT22;4951;50.778;7.196;2022-08-19T11:14:18;26.10;99.90
9824;DHT22;4951;50.778;7.196;2022-08-19T11:16:52;26.00;99.90
9824;DHT22;4951;50.778;7.196;2022-08-19T11:19:22;26.00;99.90
9824;DHT22;4951;50.778;7.196;2022-08-19T11:21:52;26.10;99.90
9824;DHT22;4951;50.778;7.196;2022-08-19T11:24:23;26.30;99.90
9824;DHT22;4951;50.778;7.196;2022-08-19T11:27:04;26.50;99.90
9824;DHT22;4951;50.778;7.196;2022-08-19T11:29:38;26.70;99.90
9824;DHT22;4951;50.778;7.196;2022-08-19T11:32:08;26.80;99.90
9824;DHT22;4951;50.778;7.196;2022-08-19T11:34:36;26.90;99.90
9824;DHT22;4951;50.778;7.196;2022-08-19T11:37:05;26.90;99.90
9824;DHT22;4951;50.778;7.196;2022-08-19T11:39:36;27.00;99.90
9824;DHT22;4951;50.778;7.196;2022-08-19T11:42:06;27.00;99.90
9824;DHT22;4951;50.778;7.196;2022-08-19T11:44:49;27.00;99.90
9824;DHT22;4951;50.778;7.196;2022-08-19T11:47:29;27.00;99.90
9824;DHT22;4951;50.778;7.196;2022-08-19T11:49:58;27.00;99.90
9824;DHT22;4951;50.778;7.196;2022-08-19T11:52:26;27.10;99.90
9824;DHT22;4951;50.778;7.196;2022-08-19T11:54:56;26.90;99.90
9824;DHT22;4951;50.778;7.196;2022-08-19T11:57:25;26.70;42.50
9824;DHT22;4951;50.778;7.196;2022-08-19T11:59:52;26.60;91.80
9824;DHT22;4951;50.778;7.196;2022-08-19T12:02:20;26.60;67.80
9824;DHT22;4951;50.778;7.196;2022-08-19T12:04:49;26.70;22.40
9824;DHT22;4951;50.778;7.196;2022-08-19T12:07:44;26.70;21.30
9824;DHT22;4951;50.778;7.196;2022-08-19T12:10:24;26.70;1.00
9824;DHT22;4951;50.778;7.196;2022-08-19T12:13:02;26.60;1.00
9824;DHT22;4951;50.778;7.196;2022-08-19T12:15:40;26.60;1.00
9824;DHT22;4951;50.778;7.196;2022-08-19T12:18:12;26.60;76.80
9824;DHT22;4951;50.778;7.196;2022-08-19T12:21:19;26.80;99.90
9824;DHT22;4951;50.778;7.196;2022-08-19T12:24:06;26.90;1.60
9824;DHT22;4951;50.778;7.196;2022-08-19T12:26:36;27.00;99.90
9824;DHT22;4951;50.778;7.196;2022-08-19T12:29:05;27.10;99.90
9824;DHT22;4951;50.778;7.196;2022-08-19T12:31:34;27.00;99.90
9824;DHT22;4951;50.778;7.196;2022-08-19T12:34:02;27.10;99.90
9824;DHT22;4951;50.778;7.196;2022-08-19T12:36:29;27.20;99.90
9824;DHT22;4951;50.778;7.196;2022-08-19T12:38:58;27.30;99.90
9824;DHT22;4951;50.778;7.196;2022-08-19T12:41:33;27.40;99.90
9824;DHT22;4951;50.778;7.196;2022-08-19T12:44:04;27.50;99.90
9824;DHT22;4951;50.778;7.196;2022-08-19T12:46:32;27.70;99.90
9824;DHT22;4951;50.778;7.196;2022-08-19T12:49:04;27.80;99.90
9824;DHT22;4951;50.778;7.196;2022-08-19T12:51:35;27.90;99.90
9824;DHT22;4951;50.778;7.196;2022-08-19T12:54:04;28.00;99.90
9824;DHT22;4951;50.778;7.196;2022-08-19T12:59:25;28.60;99.90
9824;DHT22;4951;50.778;7.196;2022-08-19T13:02:02;29.00;99.90
9824;DHT22;4951;50.778;7.196;2022-08-19T13:04:40;29.60;99.90
9824;DHT22;4951;50.778;7.196;2022-08-19T13:07:26;29.70;99.90
9824;DHT22;4951;50.778;7.196;2022-08-19T13:09:56;29.40;99.90
9824;DHT22;4951;50.778;7.196;2022-08-19T13:12:30;29.40;99.90
9824;DHT22;4951;50.778;7.196;2022-08-19T13:15:18;29.50;99.90
9824;DHT22;4951;50.778;7.196;2022-08-19T13:18:02;29.80;99.90
9824;DHT22;4951;50.778;7.196;2022-08-19T13:20:41;30.30;99.90
9824;DHT22;4951;50.778;7.196;2022-08-19T13:23:20;30.60;99.90
9824;DHT22;4951;50.778;7.196;2022-08-19T13:26:13;30.90;99.90
9824;DHT22;4951;50.778;7.196;2022-08-19T13:28:51;31.00;99.90
9824;DHT22;4951;50.778;7.196;2022-08-19T13:31:41;31.20;99.90
9824;DHT22;4951;50.778;7.196;2022-08-19T13:34:41;31.30;99.90
9824;DHT22;4951;50.778;7.196;2022-08-19T13:37:11;31.50;99.90
9824;DHT22;4951;50.778;7.196;2022-08-19T13:39:39;31.40;99.90
9824;DHT22;4951;50.778;7.196;2022-08-19T13:42:22;31.60;99.90
9824;DHT22;4951;50.778;7.196;2022-08-19T13:45:10;31.70;99.90
9824;DHT22;4951;50.778;7.196;2022-08-19T13:47:39;31.60;99.90
9824;DHT22;4951;50.778;7.196;2022-08-19T13:50:10;31.70;99.90
9824;DHT22;4951;50.778;7.196;2022-08-19T13:52:41;31.80;99.90
9824;DHT22;4951;50.778;7.196;2022-08-19T13:56:43;32.10;99.90
9824;DHT22;4951;50.778;7.196;2022-08-19T13:59:10;32.50;99.90
9824;DHT22;4951;50.778;7.196;2022-08-19T14:02:05;32.80;99.90
9824;DHT22;4951;50.778;7.196;2022-08-19T14:04:47;33.00;99.90
9824;DHT22;4951;50.778;7.196;2022-08-19T14:07:19;33.40;99.90
9824;DHT22;4951;50.778;7.196;2022-08-19T14:09:54;33.60;99.90
9824;DHT22;4951;50.778;7.196;2022-08-19T14:12:21;33.40;99.90
9824;DHT22;4951;50.778;7.196;2022-08-19T14:14:53;32.80;99.90
9824;DHT22;4951;50.778;7.196;2022-08-19T14:17:21;32.10;99.90
9824;DHT22;4951;50.778;7.196;2022-08-19T14:19:56;31.80;99.90
9824;DHT22;4951;50.778;7.196;2022-08-19T14:22:24;32.10;99.90
9824;DHT22;4951;50.778;7.196;2022-08-19T14:24:52;32.40;99.90
9824;DHT22;4951;50.778;7.196;2022-08-19T14:27:19;32.90;99.90
9824;DHT22;4951;50.778;7.196;2022-08-19T14:29:46;33.40;99.90
9824;DHT22;4951;50.778;7.196;2022-08-19T14:32:14;33.70;99.90
9824;DHT22;4951;50.778;7.196;2022-08-19T14:34:42;33.90;99.90
9824;DHT22;4951;50.778;7.196;2022-08-19T14:37:22;34.20;99.90
9824;DHT22;4951;50.778;7.196;2022-08-19T14:40:08;34.30;99.90
9824;DHT22;4951;50.778;7.196;2022-08-19T14:42:38;34.30;99.90
9824;DHT22;4951;50.778;7.196;2022-08-19T14:45:12;33.80;99.90
9824;DHT22;4951;50.778;7.196;2022-08-19T14:48:13;33.50;99.90
9824;DHT22;4951;50.778;7.196;2022-08-19T14:50:57;33.00;99.90
9824;DHT22;4951;50.778;7.196;2022-08-19T14:53:37;32.60;99.90
9824;DHT22;4951;50.778;7.196;2022-08-19T14:56:27;32.70;99.90
9824;DHT22;4951;50.778;7.196;2022-08-19T14:59:11;33.10;99.90
9824;DHT22;4951;50.778;7.196;2022-08-19T15:01:49;33.40;99.90
9824;DHT22;4951;50.778;7.196;2022-08-19T15:05:17;33.70;99.90
9824;DHT22;4951;50.778;7.196;2022-08-19T15:07:45;33.80;99.90
9824;DHT22;4951;50.778;7.196;2022-08-19T15:10:33;33.30;99.90
9824;DHT22;4951;50.778;7.196;2022-08-19T15:13:10;33.10;99.90
9824;DHT22;4951;50.778;7.196;2022-08-19T15:15:55;33.10;99.90
9824;DHT22;4951;50.778;7.196;2022-08-19T15:18:36;33.30;99.90
9824;DHT22;4951;50.778;7.196;2022-08-19T15:21:18;33.30;99.90
9824;DHT22;4951;50.778;7.196;2022-08-19T15:24:25;33.30;99.90
9824;DHT22;4951;50.778;7.196;2022-08-19T15:30:02;33.80;99.90
9824;DHT22;4951;50.778;7.196;2022-08-19T15:32:36;34.00;99.90
9824;DHT22;4951;50.778;7.196;2022-08-19T15:35:19;34.20;99.90
9824;DHT22;4951;50.778;7.196;2022-08-19T15:38:12;34.00;99.90
9824;DHT22;4951;50.778;7.196;2022-08-19T15:41:17;33.90;99.90
9824;DHT22;4951;50.778;7.196;2022-08-19T15:44:16;33.90;99.90
9824;DHT22;4951;50.778;7.196;2022-08-19T15:46:57;33.70;99.90
9824;DHT22;4951;50.778;7.196;2022-08-19T15:49:47;33.70;99.90
9824;DHT22;4951;50.778;7.196;2022-08-19T15:52:27;33.80;99.90
9824;DHT22;4951;50.778;7.196;2022-08-19T15:55:21;33.80;99.90
9824;DHT22;4951;50.778;7.196;2022-08-19T15:58:26;33.40;99.90
9824;DHT22;4951;50.778;7.196;2022-08-19T16:04:59;32.50;99.90
9824;DHT22;4951;50.778;7.196;2022-08-19T16:07:59;32.30;99.90
9824;DHT22;4951;50.778;7.196;2022-08-19T16:11:08;32.10;99.90
9824;DHT22;4951;50.778;7.196;2022-08-19T16:14:33;31.50;99.90
9824;DHT22;4951;50.778;7.196;2022-08-19T16:17:18;30.70;99.90
9824;DHT22;4951;50.778;7.196;2022-08-19T16:20:24;30.30;99.90
9824;DHT22;4951;50.778;7.196;2022-08-19T16:23:39;29.60;99.90
9824;DHT22;4951;50.778;7.196;2022-08-19T16:26:19;29.20;99.90
9824;DHT22;4951;50.778;7.196;2022-08-19T16:29:43;28.80;99.90
9824;DHT22;4951;50.778;7.196;2022-08-19T16:32:27;28.50;99.90
9824;DHT22;4951;50.778;7.196;2022-08-19T16:35:16;28.30;99.90
9824;DHT22;4951;50.778;7.196;2022-08-19T16:37:53;28.10;99.90
9824;DHT22;4951;50.778;7.196;2022-08-19T16:40:21;27.90;99.90
9824;DHT22;4951;50.778;7.196;2022-08-19T16:42:54;27.80;99.90
9824;DHT22;4951;50.778;7.196;2022-08-19T16:45:35;27.60;99.90
9824;DHT22;4951;50.778;7.196;2022-08-19T16:48:05;27.60;99.90
9824;DHT22;4951;50.778;7.196;2022-08-19T16:50:34;27.50;99.90
9824;DHT22;4951;50.778;7.196;2022-08-19T16:53:05;27.40;99.90
9824;DHT22;4951;50.778;7.196;2022-08-19T16:55:35;27.30;99.90
9824;DHT22;4951;50.778;7.196;2022-08-19T16:58:06;27.30;99.90
9824;DHT22;4951;50.778;7.196;2022-08-19T17:00:33;27.30;99.90
9824;DHT22;4951;50.778;7.196;2022-08-19T17:03:45;27.30;99.90
9824;DHT22;4951;50.778;7.196;2022-08-19T17:06:18;27.50;99.90
9824;DHT22;4951;50.778;7.196;2022-08-19T17:09:01;27.60;99.90
9824;DHT22;4951;50.778;7.196;2022-08-19T17:11:44;27.60;99.90